Time;durP1;ratioP1;P1;durP2;ratioP2;P2;SDS_P1;SDS_P2;PMS_P1;PMS_P2;Temp;Humidity;BMP_temperature;BMP_pressure;BME280_temperature;BME280_humidity;BME280_pressure;Samples;Min_cycle;Max_cycle;Signal;HPM_P1;HPM_P2
2021/04/08 00:00:55;;;;;;;59.28;5.30;;;2.90;1.00;;;;;;5071975;28;20235;-66
2021/04/08 00:03:22;;;;;;;58.00;5.35;;;2.80;1.00;;;;;;5071782;28;20209;-66
2021/04/08 00:05:48;;;;;;;60.75;5.65;;;2.70;1.00;;;;;;5071731;28;20733;-66
2021/04/08 00:08:15;;;;;;;59.85;5.88;;;2.60;1.00;;;;;;5071560;28;20221;-66
2021/04/08 00:10:41;;;;;;;58.83;5.90;;;2.50;1.00;;;;;;5071594;28;20232;-66
2021/04/08 00:13:07;;;;;;;59.38;5.18;;;2.50;1.00;;;;;;5071293;28;20262;-66
2021/04/08 00:15:34;;;;;;;59.30;5.40;;;2.40;1.00;;;;;;5071814;28;20236;-66
2021/04/08 00:18:00;;;;;;;59.78;5.85;;;2.40;1.00;;;;;;5071656;28;20319;-66
2021/04/08 00:20:27;;;;;;;59.75;5.20;;;2.40;1.00;;;;;;5071460;28;20669;-66
2021/04/08 00:22:54;;;;;;;58.95;5.35;;;2.40;1.00;;;;;;5071347;28;20243;-66
2021/04/08 00:25:20;;;;;;;60.55;6.30;;;2.40;1.00;;;;;;5071258;28;20224;-67
2021/04/08 00:27:47;;;;;;;60.13;6.45;;;2.40;1.00;;;;;;5071260;28;20239;-66
2021/04/08 00:30:14;;;;;;;59.03;5.82;;;2.40;1.00;;;;;;5071410;28;20689;-66
2021/04/08 00:32:41;;;;;;;61.08;6.75;;;2.40;1.00;;;;;;5071267;28;20285;-66
2021/04/08 00:35:08;;;;;;;61.83;6.28;;;2.40;1.00;;;;;;5071318;28;20668;-66
2021/04/08 00:37:36;;;;;;;60.50;6.25;;;2.40;1.00;;;;;;5071293;28;20237;-66
2021/04/08 00:40:06;;;;;;;60.95;6.50;;;2.40;1.00;;;;;;5070983;28;20258;-66
2021/04/08 00:42:32;;;;;;;63.15;6.47;;;2.30;1.00;;;;;;5071378;28;20636;-66
2021/04/08 00:44:59;;;;;;;62.22;6.25;;;2.30;1.00;;;;;;5071232;28;20201;-66
2021/04/08 00:47:25;;;;;;;59.35;6.10;;;2.30;1.00;;;;;;5071334;28;20238;-66
2021/04/08 00:49:51;;;;;;;60.45;6.43;;;2.30;1.00;;;;;;5071036;28;20225;-67
2021/04/08 00:52:18;;;;;;;59.15;6.15;;;2.30;1.00;;;;;;5070968;28;20288;-67
2021/04/08 00:54:46;;;;;;;59.42;5.55;;;2.30;1.00;;;;;;5070980;28;20352;-66
2021/04/08 00:57:12;;;;;;;57.80;4.80;;;2.30;1.00;;;;;;5071278;28;20232;-67
2021/04/08 00:59:39;;;;;;;61.63;6.43;;;2.30;1.00;;;;;;5071350;28;20221;-67
2021/04/08 01:02:07;;;;;;;59.75;5.95;;;2.30;1.00;;;;;;5070964;28;20201;-67
2021/04/08 01:04:33;;;;;;;59.85;5.50;;;2.20;1.00;;;;;;5071176;28;20197;-67
2021/04/08 01:07:00;;;;;;;59.10;5.63;;;2.20;1.00;;;;;;5074350;28;20215;-67
2021/04/08 01:09:26;;;;;;;58.55;5.80;;;2.20;1.00;;;;;;5074554;28;20227;-66
2021/04/08 01:11:53;;;;;;;58.40;6.80;;;2.30;1.00;;;;;;5074731;28;20244;-66
2021/04/08 01:14:21;;;;;;;60.78;6.35;;;2.30;1.00;;;;;;5074453;28;20434;-66
2021/04/08 01:16:54;;;;;;;60.30;6.18;;;2.30;1.00;;;;;;5074430;28;20295;-67
2021/04/08 01:20:08;;;;;;;58.45;5.40;;;2.30;1.00;;;;;;5074296;28;20316;-67
2021/04/08 01:22:50;;;;;;;60.60;6.25;;;2.30;1.00;;;;;;5064812;28;20204;-66
2021/04/08 01:25:40;;;;;;;58.10;5.10;;;2.30;1.00;;;;;;5074414;28;20456;-66
2021/04/08 01:28:20;;;;;;;57.90;5.03;;;2.30;1.00;;;;;;5074354;28;20319;-67
2021/04/08 01:30:49;;;;;;;60.60;6.25;;;2.30;1.00;;;;;;5074106;28;20330;-67
2021/04/08 01:33:20;;;;;;;57.97;5.43;;;2.40;1.00;;;;;;5074054;28;20244;-67
2021/04/08 01:35:48;;;;;;;59.17;5.53;;;2.40;1.00;;;;;;5074115;28;20205;-66
2021/04/08 01:38:21;;;;;;;60.28;5.55;;;2.40;1.00;;;;;;5073779;28;20367;-67
2021/04/08 01:40:50;;;;;;;59.83;6.10;;;2.40;1.00;;;;;;5073911;28;20752;-67
2021/04/08 01:43:20;;;;;;;59.15;5.65;;;2.50;1.00;;;;;;5073839;28;20236;-66
2021/04/08 01:45:49;;;;;;;60.15;5.60;;;2.50;1.00;;;;;;5073838;28;20472;-67
2021/04/08 01:48:16;;;;;;;60.15;5.95;;;2.50;1.00;;;;;;5073799;28;20229;-66
2021/04/08 01:50:43;;;;;;;59.60;5.82;;;2.60;1.00;;;;;;5073814;28;20201;-66
2021/04/08 01:53:14;;;;;;;59.08;5.82;;;2.60;1.00;;;;;;5074035;28;20216;-66
2021/04/08 01:55:43;;;;;;;58.75;5.60;;;2.60;1.00;;;;;;5074027;28;20208;-67
2021/04/08 01:58:10;;;;;;;59.63;5.80;;;2.70;1.00;;;;;;5073691;28;20732;-67
2021/04/08 02:00:37;;;;;;;57.90;4.85;;;2.70;1.00;;;;;;5073540;28;20243;-66
2021/04/08 02:03:06;;;;;;;59.50;5.50;;;2.70;1.00;;;;;;5073787;28;20288;-67
2021/04/08 02:05:33;;;;;;;59.63;6.25;;;2.70;1.00;;;;;;5073348;28;20299;-67
2021/04/08 02:08:01;;;;;;;58.85;5.50;;;2.70;1.00;;;;;;5073587;28;20555;-67
2021/04/08 02:10:30;;;;;;;60.92;7.10;;;2.70;1.00;;;;;;5073426;28;20201;-66
2021/04/08 02:12:57;;;;;;;62.45;6.03;;;2.70;1.00;;;;;;5073387;28;20228;-66
2021/04/08 02:15:24;;;;;;;59.85;5.88;;;2.70;1.00;;;;;;5073089;28;20224;-66
2021/04/08 02:17:54;;;;;;;58.20;5.55;;;2.70;1.00;;;;;;5072968;28;20208;-66
2021/04/08 02:20:24;;;;;;;59.50;6.05;;;2.70;1.00;;;;;;5073480;28;20216;-67
2021/04/08 02:22:53;;;;;;;60.30;5.78;;;2.70;1.00;;;;;;5073178;28;20205;-67
2021/04/08 02:25:22;;;;;;;59.28;5.47;;;2.70;1.00;;;;;;5072934;28;20205;-66
2021/04/08 02:27:50;;;;;;;60.40;5.55;;;2.70;1.00;;;;;;5072878;28;20342;-67
2021/04/08 02:30:18;;;;;;;59.58;5.32;;;2.70;1.00;;;;;;5072873;28;20236;-66
2021/04/08 02:32:45;;;;;;;60.40;5.90;;;2.70;1.00;;;;;;5073022;28;20295;-67
2021/04/08 02:35:15;;;;;;;59.67;5.50;;;2.70;1.00;;;;;;5072809;28;20250;-67
2021/04/08 02:37:43;;;;;;;58.15;5.38;;;2.70;1.00;;;;;;5072935;28;20292;-67
2021/04/08 02:40:11;;;;;;;57.22;5.00;;;2.70;1.00;;;;;;5072706;28;20213;-67
2021/04/08 02:42:38;;;;;;;59.25;5.40;;;2.70;1.00;;;;;;5072721;28;20220;-66
2021/04/08 02:45:06;;;;;;;60.22;5.57;;;2.70;1.00;;;;;;5072601;28;20254;-67
2021/04/08 02:47:33;;;;;;;57.75;5.05;;;2.70;1.00;;;;;;5072897;28;20209;-67
2021/04/08 02:50:01;;;;;;;60.60;5.82;;;2.70;1.00;;;;;;5072627;28;20233;-66
2021/04/08 02:52:35;;;;;;;59.22;5.55;;;2.70;1.00;;;;;;5072498;28;20205;-66
2021/04/08 02:55:13;;;;;;;58.60;5.43;;;2.70;1.00;;;;;;5072515;28;20224;-67
2021/04/08 02:57:52;;;;;;;59.38;5.10;;;2.70;1.00;;;;;;5072210;28;20259;-67
2021/04/08 03:00:20;;;;;;;59.28;5.93;;;2.70;1.00;;;;;;5072540;28;20671;-67
2021/04/08 03:02:49;;;;;;;59.85;5.20;;;2.70;1.00;;;;;;5072295;28;20211;-67
2021/04/08 03:05:16;;;;;;;58.88;5.25;;;2.70;1.00;;;;;;5072385;28;20201;-67
2021/04/08 03:07:47;;;;;;;58.08;5.20;;;2.70;1.00;;;;;;5072132;28;20211;-67
2021/04/08 03:10:16;;;;;;;57.90;4.90;;;2.70;1.00;;;;;;5072171;28;20208;-67
2021/04/08 03:12:47;;;;;;;58.40;5.13;;;2.70;1.00;;;;;;5072159;28;20236;-67
2021/04/08 03:15:14;;;;;;;58.90;5.03;;;2.70;1.00;;;;;;5072155;28;20224;-67
2021/04/08 03:17:44;;;;;;;60.55;6.32;;;2.70;1.00;;;;;;5072114;28;20262;-67
2021/04/08 03:20:13;;;;;;;58.83;5.40;;;2.60;1.00;;;;;;5072492;28;20270;-67
2021/04/08 03:22:41;;;;;;;62.35;5.38;;;2.60;1.00;;;;;;5071944;28;20296;-66
2021/04/08 03:25:09;;;;;;;60.55;5.53;;;2.60;1.00;;;;;;5071966;28;20205;-66
2021/04/08 03:27:38;;;;;;;57.83;5.63;;;2.60;1.00;;;;;;5071682;28;20329;-67
2021/04/08 03:30:09;;;;;;;62.60;6.65;;;2.60;1.00;;;;;;5072009;28;20201;-67
2021/04/08 03:32:35;;;;;;;62.25;5.70;;;2.60;1.00;;;;;;5071867;28;20247;-67
2021/04/08 03:35:02;;;;;;;59.40;6.07;;;2.60;1.00;;;;;;5071656;28;20727;-67
2021/04/08 03:37:29;;;;;;;60.83;6.38;;;2.50;1.00;;;;;;5072190;28;20204;-67
2021/04/08 03:39:55;;;;;;;60.22;6.90;;;2.50;1.00;;;;;;5072091;28;20311;-67
2021/04/08 03:42:23;;;;;;;59.88;6.05;;;2.50;1.00;;;;;;5071915;28;20229;-67
2021/04/08 03:44:51;;;;;;;59.20;6.53;;;2.50;1.00;;;;;;5071847;28;20228;-67
2021/04/08 03:47:18;;;;;;;59.75;6.10;;;2.40;1.00;;;;;;5071780;28;20665;-67
2021/04/08 03:49:47;;;;;;;59.75;6.80;;;2.40;1.00;;;;;;5071643;28;20748;-66
2021/04/08 03:52:13;;;;;;;59.88;6.50;;;2.40;1.00;;;;;;5071587;28;20294;-67
2021/04/08 03:54:42;;;;;;;61.00;5.57;;;2.40;1.00;;;;;;5071621;28;20285;-67
2021/04/08 03:57:14;;;;;;;62.92;6.90;;;2.40;1.00;;;;;;5071914;28;20670;-67
2021/04/08 03:59:41;;;;;;;64.25;7.47;;;2.40;1.00;;;;;;5071515;28;20572;-67
2021/04/08 04:02:10;;;;;;;60.53;6.47;;;2.40;1.00;;;;;;5071485;28;20211;-66
2021/04/08 04:04:38;;;;;;;61.47;6.88;;;2.40;1.00;;;;;;5071490;28;20257;-66
2021/04/08 04:07:05;;;;;;;59.97;7.20;;;2.40;1.00;;;;;;5071656;28;20579;-66
2021/04/08 04:09:32;;;;;;;61.90;6.65;;;2.40;1.00;;;;;;5071538;28;20308;-66
2021/04/08 04:11:59;;;;;;;59.92;6.22;;;2.40;1.00;;;;;;5071319;28;20295;-66
2021/04/08 04:14:27;;;;;;;60.45;6.88;;;2.40;1.00;;;;;;5071338;28;20221;-66
2021/04/08 04:16:55;;;;;;;59.90;6.43;;;2.30;1.00;;;;;;5071665;28;20209;-66
2021/04/08 04:19:22;;;;;;;61.05;6.15;;;2.30;1.00;;;;;;5071478;28;20315;-66
2021/04/08 04:21:49;;;;;;;60.05;6.68;;;2.30;1.00;;;;;;5071400;28;20243;-66
2021/04/08 04:24:15;;;;;;;58.90;5.93;;;2.30;1.00;;;;;;5071521;28;20266;-66
2021/04/08 04:26:42;;;;;;;62.15;5.90;;;2.30;1.00;;;;;;5071179;28;20213;-66
2021/04/08 04:29:08;;;;;;;58.85;5.95;;;2.30;1.00;;;;;;5071075;28;20311;-66
2021/04/08 04:31:35;;;;;;;59.35;6.20;;;2.20;1.00;;;;;;5071440;28;20209;-66
2021/04/08 04:34:04;;;;;;;61.40;5.85;;;2.20;1.00;;;;;;5071111;28;20683;-66
2021/04/08 04:36:31;;;;;;;59.88;5.60;;;2.20;1.00;;;;;;5071317;28;20205;-67
2021/04/08 04:38:57;;;;;;;59.50;6.10;;;2.20;1.00;;;;;;5071043;28;20676;-66
2021/04/08 04:41:26;;;;;;;61.90;6.80;;;2.20;1.00;;;;;;5073889;28;20261;-66
2021/04/08 04:43:53;;;;;;;60.17;6.60;;;2.20;1.00;;;;;;5071301;28;20205;-66
2021/04/08 04:46:19;;;;;;;60.63;6.55;;;2.20;1.00;;;;;;5073280;28;20315;-66
2021/04/08 04:48:46;;;;;;;61.47;6.15;;;2.20;1.00;;;;;;5073185;28;20221;-66
2021/04/08 04:51:12;;;;;;;65.22;7.20;;;2.20;1.00;;;;;;5073510;28;20718;-66
2021/04/08 04:53:39;;;;;;;59.90;6.60;;;2.20;1.00;;;;;;5073120;28;20232;-66
2021/04/08 04:56:06;;;;;;;59.53;6.40;;;2.20;1.00;;;;;;5073098;28;20307;-66
2021/04/08 04:58:33;;;;;;;59.33;6.25;;;2.20;1.00;;;;;;5073444;28;20225;-66
2021/04/08 05:00:59;;;;;;;59.95;6.45;;;2.20;1.00;;;;;;5074975;28;20240;-66
2021/04/08 05:03:25;;;;;;;61.10;6.43;;;2.30;1.00;;;;;;5074573;28;20201;-66
2021/04/08 05:05:51;;;;;;;60.20;6.85;;;2.30;1.00;;;;;;5074673;28;20200;-66
2021/04/08 05:08:18;;;;;;;59.65;6.45;;;2.30;1.00;;;;;;5074664;28;20235;-66
2021/04/08 05:10:45;;;;;;;60.10;6.38;;;2.30;1.00;;;;;;5074328;28;20292;-66
2021/04/08 05:13:12;;;;;;;61.42;5.57;;;2.30;1.00;;;;;;5074660;28;20209;-66
2021/04/08 05:15:38;;;;;;;59.13;6.25;;;2.40;1.00;;;;;;5074651;28;20224;-66
2021/04/08 05:18:04;;;;;;;61.63;6.55;;;2.40;1.00;;;;;;5074519;28;20740;-66
2021/04/08 05:20:31;;;;;;;63.67;6.45;;;2.40;1.00;;;;;;5074214;28;20259;-66
2021/04/08 05:22:57;;;;;;;61.55;6.85;;;2.50;1.00;;;;;;5074592;28;20296;-66
2021/04/08 05:25:23;;;;;;;61.80;7.10;;;2.50;1.00;;;;;;5074032;28;20677;-66
2021/04/08 05:27:51;;;;;;;61.47;6.60;;;2.50;1.00;;;;;;5074122;28;20208;-65
2021/04/08 05:30:18;;;;;;;59.92;6.68;;;2.50;1.00;;;;;;5074073;28;20324;-65
2021/04/08 05:32:44;;;;;;;61.22;6.60;;;2.60;1.00;;;;;;5074297;28;20205;-66
2021/04/08 05:35:12;;;;;;;58.85;5.85;;;2.60;1.00;;;;;;5074043;28;20260;-65
2021/04/08 05:37:39;;;;;;;61.20;5.82;;;2.70;1.00;;;;;;5074041;28;20643;-66
2021/04/08 05:40:06;;;;;;;58.78;6.78;;;2.70;1.00;;;;;;5073695;28;20274;-66
2021/04/08 05:42:33;;;;;;;60.70;6.55;;;2.70;1.00;;;;;;5073975;28;20335;-65
2021/04/08 05:45:00;;;;;;;61.58;6.60;;;2.80;1.00;;;;;;5074130;28;20258;-66
2021/04/08 05:47:26;;;;;;;59.85;6.57;;;2.80;1.00;;;;;;5074029;28;20244;-65
2021/04/08 05:49:53;;;;;;;59.33;6.30;;;2.90;1.00;;;;;;5073612;28;20713;-66
2021/04/08 05:52:19;;;;;;;66.18;5.90;;;2.90;1.00;;;;;;5073176;28;20215;-66
2021/04/08 05:54:46;;;;;;;58.80;6.00;;;3.00;1.00;;;;;;5073834;28;20233;-66
2021/04/08 05:57:12;;;;;;;58.85;5.68;;;3.10;1.00;;;;;;5073751;28;20296;-66
2021/04/08 05:59:39;;;;;;;58.95;5.82;;;3.10;1.00;;;;;;5073860;28;20312;-66
2021/04/08 06:02:06;;;;;;;61.95;5.95;;;3.20;1.00;;;;;;5073673;28;20227;-66
2021/04/08 06:04:32;;;;;;;60.33;5.63;;;3.20;1.00;;;;;;5073600;28;20297;-66
2021/04/08 06:06:58;;;;;;;61.53;5.80;;;3.20;1.00;;;;;;5073447;28;20209;-66
2021/04/08 06:09:25;;;;;;;64.93;7.63;;;3.30;1.00;;;;;;5073559;28;20256;-66
2021/04/08 06:11:51;;;;;;;66.03;5.90;;;3.30;1.00;;;;;;5073396;28;20236;-65
2021/04/08 06:14:18;;;;;;;59.50;5.45;;;3.30;1.00;;;;;;5073428;28;20312;-65
2021/04/08 06:16:44;;;;;;;61.67;6.10;;;3.30;1.00;;;;;;5073381;28;20208;-66
2021/04/08 06:19:11;;;;;;;59.55;5.88;;;3.40;1.00;;;;;;5073108;28;20592;-66
2021/04/08 06:21:38;;;;;;;58.92;6.15;;;3.40;1.00;;;;;;5073132;28;20300;-66
2021/04/08 06:24:07;;;;;;;59.60;6.47;;;3.50;1.00;;;;;;5072894;28;20665;-66
2021/04/08 06:26:33;;;;;;;60.08;6.70;;;3.50;1.00;;;;;;5073278;28;20599;-66
2021/04/08 06:29:00;;;;;;;60.78;6.90;;;3.60;1.00;;;;;;5073047;28;20679;-66
2021/04/08 06:31:27;;;;;;;61.95;6.60;;;3.70;1.00;;;;;;5072911;28;20296;-66
2021/04/08 06:33:53;;;;;;;61.08;6.57;;;3.80;1.00;;;;;;5072685;28;20711;-66
2021/04/08 06:36:21;;;;;;;62.05;6.50;;;3.90;1.00;;;;;;5072602;28;20248;-67
2021/04/08 06:38:48;;;;;;;63.50;6.88;;;4.00;1.00;;;;;;5072753;28;20311;-67
2021/04/08 06:41:16;;;;;;;60.75;7.07;;;4.00;1.00;;;;;;5072741;28;20596;-67
2021/04/08 06:43:44;;;;;;;59.38;6.20;;;4.10;1.00;;;;;;5072604;28;20555;-67
2021/04/08 06:46:14;;;;;;;63.42;6.50;;;4.30;1.00;;;;;;5072539;28;20300;-66
2021/04/08 06:48:44;;;;;;;61.10;6.07;;;4.40;1.00;;;;;;5072431;28;20221;-67
2021/04/08 06:51:12;;;;;;;61.28;7.10;;;4.50;1.00;;;;;;5072697;28;20209;-66
2021/04/08 06:53:40;;;;;;;60.70;6.80;;;4.50;1.00;;;;;;5071984;28;20205;-67
2021/04/08 06:56:08;;;;;;;62.53;6.68;;;4.60;1.00;;;;;;5070577;28;20225;-66
2021/04/08 06:58:36;;;;;;;64.57;8.35;;;4.70;1.00;;;;;;5070523;28;20285;-67
2021/04/08 07:01:06;;;;;;;63.00;7.50;;;4.70;1.00;;;;;;5070492;28;20233;-67
2021/04/08 07:03:32;;;;;;;61.83;6.70;;;4.80;1.00;;;;;;5069452;28;20807;-67
2021/04/08 07:05:59;;;;;;;62.38;6.30;;;4.80;1.00;;;;;;5070942;28;20203;-67
2021/04/08 07:08:27;;;;;;;60.08;6.82;;;4.90;1.00;;;;;;5070769;28;20243;-66
2021/04/08 07:10:54;;;;;;;62.08;6.93;;;4.90;1.00;;;;;;5072055;28;20235;-65
2021/04/08 07:13:21;;;;;;;59.92;5.63;;;4.90;1.00;;;;;;5072101;28;20296;-68
2021/04/08 07:15:47;;;;;;;61.88;6.60;;;5.00;1.00;;;;;;5071957;28;20221;-65
2021/04/08 07:18:15;;;;;;;61.67;6.80;;;5.00;1.00;;;;;;5071899;28;20232;-65
2021/04/08 07:20:42;;;;;;;60.97;6.57;;;5.00;1.00;;;;;;5072068;28;20261;-65
2021/04/08 07:23:10;;;;;;;59.28;6.10;;;5.10;1.00;;;;;;5071964;28;20200;-66
2021/04/08 07:25:36;;;;;;;60.55;5.88;;;5.20;1.00;;;;;;5072358;28;20284;-66
2021/04/08 07:28:29;;;;;;;59.30;5.95;;;5.40;1.00;;;;;;5070874;28;20311;-66
2021/04/08 07:30:56;;;;;;;58.10;5.60;;;5.50;1.00;;;;;;5071826;28;20253;-65
2021/04/08 07:33:22;;;;;;;59.58;6.20;;;5.60;1.00;;;;;;5071628;28;20250;-66
2021/04/08 07:35:48;;;;;;;59.28;6.03;;;5.70;1.00;;;;;;5070457;28;20637;-66
2021/04/08 07:38:15;;;;;;;63.03;5.97;;;5.90;1.00;;;;;;5071395;28;20252;-66
2021/04/08 07:40:58;;;;;;;60.75;5.70;;;6.10;1.00;;;;;;5071624;28;20724;-66
2021/04/08 07:43:25;;;;;;;63.17;6.32;;;6.30;1.00;;;;;;5071645;28;20396;-66
2021/04/08 07:45:52;;;;;;;62.67;6.47;;;6.40;1.00;;;;;;5071930;28;20197;-66
2021/04/08 07:48:32;;;;;;;59.70;5.93;;;6.50;1.00;;;;;;5071744;28;20225;-66
2021/04/08 07:50:58;;;;;;;59.15;6.22;;;6.50;1.00;;;;;;5071863;28;20239;-66
2021/04/08 07:53:25;;;;;;;64.53;6.80;;;6.60;1.00;;;;;;5071385;28;20217;-66
2021/04/08 07:55:51;;;;;;;59.75;6.47;;;6.60;1.00;;;;;;5071561;28;20220;-67
2021/04/08 07:58:17;;;;;;;60.45;6.80;;;6.60;1.00;;;;;;5071639;28;20691;-66
2021/04/08 08:00:49;;;;;;;59.22;5.88;;;6.70;1.00;;;;;;5071999;28;20633;-66
2021/04/08 08:03:26;;;;;;;61.40;6.65;;;6.70;1.00;;;;;;5071480;28;20686;-66
2021/04/08 08:05:57;;;;;;;60.03;6.22;;;6.70;1.00;;;;;;5071485;28;20612;-66
2021/04/08 08:08:25;;;;;;;58.78;5.30;;;6.70;1.00;;;;;;5071277;28;20226;-66
2021/04/08 08:11:01;;;;;;;65.43;7.03;;;6.70;1.00;;;;;;5071667;28;20669;-66
2021/04/08 08:13:30;;;;;;;60.40;6.05;;;6.70;1.00;;;;;;5071435;28;20208;-66
2021/04/08 08:15:58;;;;;;;58.47;5.22;;;6.70;1.00;;;;;;5075252;28;20705;-66
2021/04/08 08:18:27;;;;;;;59.85;4.80;;;6.70;1.00;;;;;;5075372;28;20228;-66
2021/04/08 08:21:04;;;;;;;59.63;5.50;;;6.70;1.00;;;;;;5075665;28;20243;-66
2021/04/08 08:23:39;;;;;;;61.85;5.72;;;6.60;1.00;;;;;;5075543;28;20281;-66
2021/04/08 08:26:26;;;;;;;61.70;5.85;;;6.50;1.00;;;;;;5075361;28;20305;-66
2021/04/08 08:28:53;;;;;;;59.40;5.55;;;6.40;1.00;;;;;;5075469;28;20236;-66
2021/04/08 08:31:41;;;;;;;58.30;6.07;;;6.40;1.00;;;;;;5075270;28;20244;-66
2021/04/08 08:34:10;;;;;;;60.45;6.03;;;6.40;1.00;;;;;;5075449;28;20342;-67
2021/04/08 08:36:37;;;;;;;60.60;5.47;;;6.50;1.00;;;;;;5075171;28;20209;-67
2021/04/08 08:39:07;;;;;;;60.38;6.20;;;6.60;1.00;;;;;;5075013;28;20660;-67
2021/04/08 08:41:34;;;;;;;63.65;6.00;;;6.80;1.00;;;;;;5075100;28;20219;-66
2021/04/08 08:44:03;;;;;;;60.58;5.57;;;7.10;1.00;;;;;;5074909;28;20206;-67
2021/04/08 08:46:31;;;;;;;64.03;6.20;;;7.40;1.00;;;;;;5075078;28;20206;-67
2021/04/08 08:49:00;;;;;;;62.38;6.30;;;7.50;1.00;;;;;;5074812;28;20228;-67
2021/04/08 08:51:27;;;;;;;60.63;5.93;;;7.70;1.00;;;;;;5074789;28;20207;-67
2021/04/08 08:53:54;;;;;;;58.67;6.20;;;7.80;1.00;;;;;;5074485;28;20205;-67
2021/04/08 08:56:24;;;;;;;60.65;6.00;;;8.00;1.00;;;;;;5075013;28;20623;-67
2021/04/08 08:58:52;;;;;;;63.17;7.53;;;8.20;1.00;;;;;;5074716;28;20230;-67
2021/04/08 09:01:20;;;;;;;61.67;6.60;;;8.20;1.00;;;;;;5074753;28;20351;-67
2021/04/08 09:03:46;;;;;;;61.80;6.80;;;8.20;1.00;;;;;;5074444;28;20441;-67
2021/04/08 09:06:14;;;;;;;60.20;6.70;;;8.30;1.00;;;;;;5074539;28;20481;-67
2021/04/08 09:08:45;;;;;;;61.20;7.23;;;8.40;1.00;;;;;;5074385;28;20313;-67
2021/04/08 09:11:18;;;;;;;60.77;6.40;;;8.50;1.00;;;;;;5074821;28;20453;-67
2021/04/08 09:13:45;;;;;;;61.60;6.90;;;8.60;1.00;;;;;;5074268;28;20487;-67
2021/04/08 09:16:15;;;;;;;62.60;6.80;;;8.50;1.00;;;;;;5074355;28;20563;-67
2021/04/08 09:18:41;;;;;;;59.27;6.37;;;8.60;1.00;;;;;;5074110;28;20479;-67
2021/04/08 09:21:08;;;;;;;62.30;7.17;;;8.60;1.00;;;;;;5074494;28;20823;-67
2021/04/08 09:23:35;;;;;;;62.30;6.47;;;8.70;1.00;;;;;;5074157;28;20460;-67
2021/04/08 09:26:02;;;;;;;60.87;6.30;;;8.90;1.00;;;;;;5073273;28;20943;-67
2021/04/08 09:28:39;;;;;;;59.87;6.87;;;9.40;1.00;;;;;;5074011;28;20523;-65
2021/04/08 09:31:09;;;;;;;60.30;6.53;;;9.40;1.00;;;;;;5074180;28;20850;-67
2021/04/08 09:33:58;;;;;;;62.87;6.77;;;9.30;1.00;;;;;;5074129;28;20485;-65
2021/04/08 09:36:52;;;;;;;60.67;6.10;;;9.20;1.00;;;;;;5074304;28;20441;-66
2021/04/08 09:39:29;;;;;;;62.17;6.70;;;8.80;1.00;;;;;;5072067;28;20557;-66
2021/04/08 09:42:02;;;;;;;60.05;5.93;;;8.50;1.00;;;;;;5073792;28;20453;-66
2021/04/08 09:44:29;;;;;;;60.55;6.70;;;8.20;1.00;;;;;;5073913;28;20211;-66
2021/04/08 09:46:59;;;;;;;59.23;6.47;;;7.90;1.00;;;;;;5074042;28;20208;-66
2021/04/08 09:49:48;;;;;;;60.50;6.40;;;7.70;1.00;;;;;;5073682;28;20469;-66
2021/04/08 09:52:16;;;;;;;65.50;7.03;;;7.50;1.00;;;;;;5073660;28;20523;-66
2021/04/08 09:54:52;;;;;;;60.17;6.85;;;7.50;1.00;;;;;;5073781;28;20496;-66
2021/04/08 09:57:37;;;;;;;59.25;6.32;;;7.50;1.00;;;;;;5073864;28;20211;-66
2021/04/08 10:00:12;;;;;;;60.72;6.78;;;7.50;1.00;;;;;;5073486;28;20237;-66
2021/04/08 10:02:39;;;;;;;59.63;6.25;;;7.40;1.00;;;;;;5073412;28;20235;-66
2021/04/08 10:05:08;;;;;;;63.90;6.15;;;7.40;1.00;;;;;;5073575;28;20294;-66
2021/04/08 10:07:51;;;;;;;58.67;6.03;;;7.30;1.00;;;;;;5073565;28;20212;-65
2021/04/08 10:10:19;;;;;;;60.30;6.22;;;7.40;1.00;;;;;;5073350;28;20218;-66
2021/04/08 10:12:46;;;;;;;67.27;7.50;;;8.40;1.00;;;;;;5073219;28;20689;-66
2021/04/08 10:15:17;;;;;;;64.80;7.10;;;10.20;1.00;;;;;;5073066;28;20581;-66
2021/04/08 10:17:44;;;;;;;61.67;6.13;;;11.10;1.00;;;;;;5073382;28;20504;-66
2021/04/08 10:20:11;;;;;;;60.67;6.17;;;11.10;1.00;;;;;;5073277;28;21058;-66
2021/04/08 10:22:45;;;;;;;62.53;7.10;;;10.90;1.00;;;;;;5073123;28;20447;-66
2021/04/08 10:25:12;;;;;;;58.80;6.30;;;10.60;1.00;;;;;;5073101;28;20443;-66
2021/04/08 10:27:40;;;;;;;63.00;7.17;;;10.30;1.00;;;;;;5072998;28;20640;-66
2021/04/08 10:30:15;;;;;;;59.20;6.43;;;10.00;1.00;;;;;;5073112;28;20503;-66
2021/04/08 10:32:42;;;;;;;61.20;6.17;;;9.80;1.00;;;;;;5072676;28;20449;-66
2021/04/08 10:35:22;;;;;;;60.53;6.37;;;9.70;1.00;;;;;;5072690;28;20558;-66
2021/04/08 10:37:58;;;;;;;62.13;7.60;;;9.50;1.00;;;;;;5073009;28;20434;-65
2021/04/08 10:40:24;;;;;;;61.20;6.03;;;9.30;1.00;;;;;;5072546;28;20525;-66
2021/04/08 10:42:52;;;;;;;62.80;6.67;;;9.30;1.00;;;;;;5072709;28;20528;-66
2021/04/08 10:45:19;;;;;;;58.60;6.30;;;9.50;1.00;;;;;;5072758;28;20452;-66
2021/04/08 10:47:46;;;;;;;59.80;6.70;;;9.50;1.00;;;;;;5072524;28;20455;-66
2021/04/08 10:50:17;;;;;;;62.90;7.07;;;9.70;1.00;;;;;;5072455;28;20446;-66
2021/04/08 10:52:46;;;;;;;60.63;6.37;;;10.00;1.00;;;;;;5072512;28;20528;-66
2021/04/08 10:55:14;;;;;;;60.43;6.73;;;10.10;1.00;;;;;;5072410;28;20808;-66
2021/04/08 10:57:42;;;;;;;62.10;7.10;;;10.30;1.00;;;;;;5072347;28;20454;-66
2021/04/08 11:00:11;;;;;;;64.37;7.70;;;10.40;1.00;;;;;;5072457;28;20453;-66
2021/04/08 11:02:39;;;;;;;63.80;7.70;;;10.40;1.00;;;;;;5072204;28;20492;-66
2021/04/08 11:05:08;;;;;;;63.17;7.83;;;10.40;1.00;;;;;;5072183;28;20450;-66
2021/04/08 11:07:39;;;;;;;62.03;6.90;;;10.30;1.00;;;;;;5072484;28;20454;-66
2021/04/08 11:10:10;;;;;;;62.40;7.20;;;10.20;1.00;;;;;;5072160;28;20454;-66
2021/04/08 11:12:37;;;;;;;60.20;7.10;;;10.30;1.00;;;;;;5072073;28;20601;-66
2021/04/08 11:15:06;;;;;;;60.00;7.00;;;10.50;1.00;;;;;;5071994;28;20569;-66
2021/04/08 11:17:35;;;;;;;61.87;7.40;;;10.60;1.00;;;;;;5072028;28;20446;-66
2021/04/08 11:20:03;;;;;;;63.30;7.50;;;10.90;1.00;;;;;;5072160;28;20557;-66
2021/04/08 11:22:32;;;;;;;61.90;6.87;;;11.40;1.00;;;;;;5072068;28;20455;-66
2021/04/08 11:25:00;;;;;;;63.97;7.13;;;11.80;1.00;;;;;;5071990;28;20455;-66
2021/04/08 11:27:28;;;;;;;64.00;7.37;;;12.30;1.00;;;;;;5072055;28;20482;-66
2021/04/08 11:29:55;;;;;;;61.97;7.40;;;12.70;1.00;;;;;;5071923;28;20983;-66
2021/04/08 11:32:22;;;;;;;61.50;8.50;;;13.10;1.00;;;;;;5072002;28;20534;-66
2021/04/08 11:34:51;;;;;;;61.20;6.53;;;13.80;1.00;;;;;;5071763;28;20481;-66
2021/04/08 11:37:19;;;;;;;62.10;7.73;;;14.60;1.00;;;;;;5071842;28;20940;-66
2021/04/08 11:39:47;;;;;;;61.50;6.80;;;14.70;1.00;;;;;;5071663;28;20554;-66
2021/04/08 11:42:15;;;;;;;62.73;7.33;;;14.90;1.00;;;;;;5071756;28;20542;-66
2021/04/08 11:44:42;;;;;;;62.77;7.60;;;14.90;1.00;;;;;;5071685;28;20531;-64
2021/04/08 11:47:17;;;;;;;62.57;7.50;;;15.00;1.00;;;;;;5071640;28;20439;-67
2021/04/08 11:49:45;;;;;;;61.10;6.93;;;15.40;1.00;;;;;;5071307;28;20566;-67
2021/04/08 11:52:14;;;;;;;60.73;7.33;;;15.70;1.00;;;;;;5071657;28;20537;-67
2021/04/08 11:55:00;;;;;;;63.93;7.07;;;15.50;1.00;;;;;;5072061;28;20492;-64
2021/04/08 11:57:27;;;;;;;61.07;7.33;;;14.90;1.00;;;;;;5071838;28;20566;-64
2021/04/08 12:00:00;;;;;;;60.57;7.20;;;14.40;1.00;;;;;;5071737;28;20478;-64
2021/04/08 12:02:30;;;;;;;64.87;7.13;;;14.10;1.00;;;;;;5071603;28;20448;-65
2021/04/08 12:04:57;;;;;;;61.77;6.20;;;13.90;1.00;;;;;;5071531;28;20444;-65
2021/04/08 12:07:25;;;;;;;63.37;7.63;;;14.30;1.00;;;;;;5071559;28;20492;-65
2021/04/08 12:09:51;;;;;;;63.10;6.80;;;14.90;1.00;;;;;;5071395;28;20605;-66
2021/04/08 12:12:18;;;;;;;60.07;6.80;;;16.20;1.00;;;;;;5071503;28;20451;-65
2021/04/08 12:14:54;;;;;;;62.53;7.67;;;16.60;1.00;;;;;;5071692;28;20959;-65
2021/04/08 12:17:20;;;;;;;62.50;7.37;;;16.40;1.00;;;;;;5071359;28;20450;-65
2021/04/08 12:19:47;;;;;;;67.43;9.00;;;16.00;1.00;;;;;;5071355;28;20903;-66
2021/04/08 12:22:14;;;;;;;60.43;6.80;;;15.50;1.00;;;;;;5071192;28;20485;-65
2021/04/08 12:25:02;;;;;;;61.03;7.67;;;15.30;1.00;;;;;;5071499;28;20501;-65
2021/04/08 12:27:28;;;;;;;59.20;6.70;;;15.20;1.00;;;;;;5071321;28;20568;-66
2021/04/08 12:29:55;;;;;;;60.50;7.17;;;15.10;1.00;;;;;;5071303;28;20558;-66
2021/04/08 12:32:28;;;;;;;62.73;7.23;;;15.00;1.00;;;;;;5071077;28;21023;-66
2021/04/08 12:34:54;;;;;;;60.90;7.37;;;15.10;1.00;;;;;;5071382;28;20487;-66
2021/04/08 12:37:21;;;;;;;62.30;7.30;;;15.20;1.00;;;;;;5071428;28;20447;-66
2021/04/08 12:39:49;;;;;;;61.27;7.43;;;15.00;1.00;;;;;;5071141;28;20470;-66
2021/04/08 12:42:15;;;;;;;60.83;7.70;;;14.70;1.00;;;;;;5071313;28;20792;-66
2021/04/08 12:44:42;;;;;;;59.33;6.70;;;14.50;1.00;;;;;;5071193;28;20526;-66
2021/04/08 12:47:09;;;;;;;62.37;6.97;;;14.40;1.00;;;;;;5070942;28;20439;-66
2021/04/08 12:49:36;;;;;;;62.83;6.93;;;14.20;1.00;;;;;;5071182;28;20471;-66
2021/04/08 12:52:02;;;;;;;60.10;6.90;;;14.00;1.00;;;;;;5071191;28;20486;-66
2021/04/08 12:54:31;;;;;;;61.50;7.00;;;13.90;1.00;;;;;;5071188;28;20443;-65
2021/04/08 12:56:58;;;;;;;59.90;7.40;;;14.00;1.00;;;;;;5071041;28;20450;-65
2021/04/08 12:59:25;;;;;;;60.10;6.90;;;15.60;1.00;;;;;;5070929;28;20475;-66
2021/04/08 13:01:51;;;;;;;60.57;6.53;;;17.10;1.00;;;;;;5072958;28;20538;-66
2021/04/08 13:04:18;;;;;;;58.43;5.53;;;17.80;1.00;;;;;;5074620;28;20968;-66